Time;durP1;ratioP1;P1;durP2;ratioP2;P2;SDS_P1;SDS_P2;PMS_P1;PMS_P2;Temp;Humidity;BMP_temperature;BMP_pressure;BME280_temperature;BME280_humidity;BME280_pressure;Samples;Min_cycle;Max_cycle;Signal;HPM_P1;HPM_P2
2022/04/20 00:02:19;;;;;;;34.08;19.25;;;4.60;99.90;;;;;;5011528;28;20579;-68
2022/04/20 00:04:46;;;;;;;28.77;16.57;;;4.60;99.90;;;;;;4995477;28;20211;-69
2022/04/20 00:07:12;;;;;;;26.10;15.93;;;4.60;99.90;;;;;;4995482;28;21009;-68
2022/04/20 00:09:41;;;;;;;28.10;16.07;;;4.60;99.90;;;;;;4995551;28;20228;-67
2022/04/20 00:12:12;;;;;;;29.67;16.48;;;4.50;99.90;;;;;;4995658;28;20489;-68
2022/04/20 00:14:40;;;;;;;25.38;14.95;;;4.50;99.90;;;;;;4997339;28;20200;-67
2022/04/20 00:17:08;;;;;;;23.00;15.02;;;4.40;99.90;;;;;;5014821;28;20621;-68
2022/04/20 00:19:35;;;;;;;32.30;16.73;;;4.40;99.90;;;;;;5014870;28;20214;-68
2022/04/20 00:22:06;;;;;;;28.25;15.10;;;4.40;99.90;;;;;;5032417;28;20206;-67
2022/04/20 00:24:32;;;;;;;24.80;14.98;;;4.30;99.90;;;;;;5014849;28;20267;-68
2022/04/20 00:26:59;;;;;;;33.13;15.00;;;4.30;99.90;;;;;;5015322;28;20608;-68
2022/04/20 00:29:30;;;;;;;28.00;14.98;;;4.30;99.90;;;;;;5014414;28;20418;-67
2022/04/20 00:31:57;;;;;;;23.25;14.50;;;4.30;99.90;;;;;;5014776;28;20708;-67
2022/04/20 00:34:27;;;;;;;24.80;14.60;;;4.30;99.90;;;;;;5014647;28;20199;-68
2022/04/20 00:36:57;;;;;;;26.08;17.50;;;4.20;99.90;;;;;;5014328;28;20187;-68
2022/04/20 00:39:27;;;;;;;37.47;20.50;;;4.10;99.90;;;;;;5014688;28;20525;-68
2022/04/20 00:41:53;;;;;;;47.33;21.00;;;4.00;99.90;;;;;;5014563;28;20179;-68
2022/04/20 00:44:21;;;;;;;42.75;20.08;;;4.00;99.90;;;;;;5030857;28;20202;-68
2022/04/20 00:46:48;;;;;;;40.05;20.75;;;4.00;99.90;;;;;;5014373;28;20183;-68
2022/04/20 00:49:15;;;;;;;41.00;19.55;;;4.00;99.90;;;;;;5031928;28;20195;-68
2022/04/20 00:51:52;;;;;;;43.95;21.60;;;3.90;99.90;;;;;;5013613;28;20187;-67
2022/04/20 00:54:18;;;;;;;47.22;23.08;;;3.90;99.90;;;;;;5014452;28;20198;-69
2022/04/20 00:56:44;;;;;;;33.55;19.25;;;3.90;99.90;;;;;;5014377;28;20183;-68
2022/04/20 00:59:11;;;;;;;34.50;17.60;;;3.80;99.90;;;;;;5030494;28;20289;-69
2022/04/20 01:01:38;;;;;;;33.33;17.17;;;3.80;99.90;;;;;;5014100;28;20178;-68
2022/04/20 01:04:09;;;;;;;37.75;19.10;;;3.80;99.90;;;;;;5014237;28;20569;-68
2022/04/20 01:06:40;;;;;;;38.05;19.25;;;3.80;99.90;;;;;;5013964;28;20189;-67
2022/04/20 01:09:06;;;;;;;34.33;18.73;;;3.80;99.90;;;;;;5013757;28;20182;-67
2022/04/20 01:11:32;;;;;;;33.67;17.60;;;3.80;99.90;;;;;;5013887;28;20255;-68
2022/04/20 01:13:58;;;;;;;31.23;18.67;;;3.70;99.90;;;;;;5030616;28;20189;-67
2022/04/20 01:16:32;;;;;;;33.00;18.47;;;3.70;99.90;;;;;;5001047;28;20477;-67
2022/04/20 01:18:58;;;;;;;29.42;16.95;;;3.70;99.90;;;;;;5076423;28;20420;-68
2022/04/20 01:21:25;;;;;;;29.65;16.73;;;3.80;99.90;;;;;;5077048;28;20180;-68
2022/04/20 01:23:54;;;;;;;29.17;17.33;;;3.80;99.90;;;;;;5059535;28;20302;-67
2022/04/20 01:26:29;;;;;;;30.77;16.50;;;3.70;99.90;;;;;;5059316;28;20179;-68
2022/04/20 01:28:55;;;;;;;32.78;18.90;;;3.70;99.90;;;;;;5059187;28;20168;-68
2022/04/20 01:31:22;;;;;;;35.22;17.80;;;3.70;99.90;;;;;;5059218;28;20184;-67
2022/04/20 01:33:49;;;;;;;29.73;16.55;;;3.70;99.90;;;;;;5058983;28;20226;-68
2022/04/20 01:36:15;;;;;;;35.15;20.55;;;3.70;99.90;;;;;;5059237;28;20207;-69
2022/04/20 01:38:48;;;;;;;30.40;17.60;;;3.70;99.90;;;;;;5059046;28;20211;-68
2022/04/20 01:41:15;;;;;;;35.15;17.13;;;3.70;99.90;;;;;;5075665;28;20271;-69
2022/04/20 01:43:42;;;;;;;24.63;15.13;;;3.70;99.90;;;;;;5094238;28;20638;-68
2022/04/20 01:46:09;;;;;;;32.55;17.80;;;3.70;99.90;;;;;;5075730;28;20200;-68
2022/04/20 01:48:37;;;;;;;34.60;18.80;;;3.70;99.90;;;;;;5075858;28;20208;-67
2022/04/20 01:53:48;;;;;;;29.92;17.55;;;3.70;99.90;;;;;;5093934;28;20564;-69
2022/04/20 01:56:15;;;;;;;33.20;18.17;;;3.70;99.90;;;;;;5076092;28;20184;-68
2022/04/20 01:58:41;;;;;;;28.75;17.30;;;3.60;99.90;;;;;;5076296;28;20188;-68
2022/04/20 02:03:57;;;;;;;30.98;16.25;;;3.70;99.90;;;;;;5092127;28;20255;-67
2022/04/20 02:06:31;;;;;;;29.00;16.65;;;3.70;99.90;;;;;;5092655;28;20177;-68
2022/04/20 02:08:57;;;;;;;23.27;16.17;;;3.60;99.90;;;;;;5075171;28;20177;-69
2022/04/20 02:11:23;;;;;;;33.73;18.73;;;3.60;99.90;;;;;;5076204;28;20666;-68
2022/04/20 02:13:49;;;;;;;36.28;18.70;;;3.60;99.90;;;;;;5058499;28;20420;-68
2022/04/20 02:16:17;;;;;;;41.27;21.03;;;3.70;99.90;;;;;;5019056;28;20312;-68
2022/04/20 02:18:43;;;;;;;33.72;19.90;;;3.70;99.90;;;;;;5013200;28;20422;-67
2022/04/20 02:21:09;;;;;;;45.72;21.20;;;3.70;99.90;;;;;;5012743;28;20203;-68
2022/04/20 02:23:46;;;;;;;51.83;24.53;;;3.80;99.90;;;;;;5013287;28;20286;-68
2022/04/20 02:26:12;;;;;;;52.35;25.40;;;3.80;99.90;;;;;;5013168;28;20205;-68
2022/04/20 02:28:38;;;;;;;33.27;20.17;;;3.80;99.90;;;;;;5013265;28;20210;-68
2022/04/20 02:31:04;;;;;;;57.47;25.27;;;3.80;99.90;;;;;;5029263;28;20280;-68
2022/04/20 02:33:32;;;;;;;75.25;37.40;;;3.80;99.90;;;;;;5013024;28;20670;-68
2022/04/20 02:35:58;;;;;;;86.70;48.55;;;3.80;99.90;;;;;;5012964;28;20275;-68
2022/04/20 02:38:24;;;;;;;75.03;41.30;;;3.80;99.90;;;;;;5012853;28;20277;-68
2022/04/20 02:40:58;;;;;;;77.43;40.73;;;3.80;99.90;;;;;;5012807;28;20234;-68
2022/04/20 02:43:23;;;;;;;102.47;51.53;;;3.80;99.90;;;;;;5012571;28;20225;-68
2022/04/20 02:45:49;;;;;;;116.57;61.27;;;3.80;99.90;;;;;;5012498;28;20257;-69
2022/04/20 02:48:16;;;;;;;105.93;53.13;;;3.80;99.90;;;;;;5013241;28;20182;-67
2022/04/20 02:50:43;;;;;;;88.25;45.35;;;3.80;99.90;;;;;;5012512;28;20297;-68
2022/04/20 02:53:09;;;;;;;81.20;40.85;;;3.90;99.90;;;;;;5013021;28;20175;-68
2022/04/20 02:55:35;;;;;;;72.90;32.83;;;3.90;99.90;;;;;;5012729;28;20209;-68
2022/04/20 02:58:01;;;;;;;51.83;25.73;;;3.90;99.90;;;;;;5012559;28;20416;-68
2022/04/20 03:00:28;;;;;;;36.50;22.58;;;3.90;99.90;;;;;;5028812;28;20207;-70
2022/04/20 03:02:54;;;;;;;38.25;18.75;;;3.80;99.90;;;;;;5030178;28;20211;-68
2022/04/20 03:05:23;;;;;;;43.03;24.13;;;3.80;99.90;;;;;;5012889;28;20346;-67
2022/04/20 03:07:49;;;;;;;34.58;21.73;;;3.80;99.90;;;;;;5012435;28;20193;-68
2022/04/20 03:10:23;;;;;;;34.43;21.10;;;3.80;99.90;;;;;;5012869;28;20202;-68
2022/04/20 03:12:53;;;;;;;38.03;21.40;;;3.70;99.90;;;;;;5012570;28;20175;-67
2022/04/20 03:15:26;;;;;;;37.60;20.65;;;3.70;99.90;;;;;;4997727;28;20394;-68
2022/04/20 03:17:52;;;;;;;35.83;19.15;;;3.70;99.90;;;;;;4996350;28;20694;-68
2022/04/20 03:20:18;;;;;;;32.93;20.07;;;3.80;99.90;;;;;;4996252;28;20231;-68
2022/04/20 03:22:44;;;;;;;34.70;19.63;;;3.80;99.90;;;;;;4996081;28;20220;-68
2022/04/20 03:25:19;;;;;;;38.33;21.50;;;3.80;99.90;;;;;;4995996;28;20449;-67
2022/04/20 03:27:50;;;;;;;37.67;20.02;;;3.80;99.90;;;;;;4997210;28;20187;-67
2022/04/20 03:30:19;;;;;;;33.95;19.08;;;3.80;99.90;;;;;;4996308;28;20202;-67
2022/04/20 03:32:47;;;;;;;45.25;20.35;;;3.90;99.90;;;;;;5012647;28;20700;-68
2022/04/20 03:35:15;;;;;;;41.08;22.40;;;3.90;99.90;;;;;;4995680;28;20234;-69
2022/04/20 03:37:42;;;;;;;38.20;19.35;;;4.00;99.90;;;;;;4996037;28;20189;-69
2022/04/20 03:40:09;;;;;;;35.85;21.00;;;4.00;99.90;;;;;;5011954;28;20218;-67
2022/04/20 03:42:35;;;;;;;34.38;19.30;;;4.10;99.90;;;;;;4995863;28;20211;-69
2022/04/20 03:45:02;;;;;;;36.65;20.65;;;4.10;99.90;;;;;;5013164;28;20632;-68
2022/04/20 03:47:28;;;;;;;37.70;21.60;;;4.20;99.90;;;;;;4995622;28;20697;-68
2022/04/20 03:49:54;;;;;;;39.67;20.10;;;4.20;99.90;;;;;;4995434;28;20297;-68
2022/04/20 03:52:20;;;;;;;35.42;19.67;;;4.20;99.90;;;;;;4995774;28;20183;-69
2022/04/20 03:54:48;;;;;;;28.87;18.50;;;4.30;99.90;;;;;;4995650;28;20630;-69
2022/04/20 03:57:14;;;;;;;36.63;20.58;;;4.30;99.90;;;;;;4995642;28;20413;-69
2022/04/20 03:59:42;;;;;;;33.90;18.55;;;4.40;99.90;;;;;;4995445;28;20551;-67
2022/04/20 04:02:09;;;;;;;33.65;17.30;;;4.40;99.90;;;;;;4994980;28;20222;-68
2022/04/20 04:04:37;;;;;;;33.50;19.10;;;4.40;99.90;;;;;;4995208;28;20647;-68
2022/04/20 04:07:04;;;;;;;32.20;19.05;;;4.40;99.90;;;;;;4994718;28;20194;-68
2022/04/20 04:09:29;;;;;;;30.13;17.85;;;4.40;99.90;;;;;;4995270;28;20690;-68
2022/04/20 04:11:57;;;;;;;31.80;18.37;;;4.40;99.90;;;;;;5013159;28;20187;-67
2022/04/20 04:14:23;;;;;;;27.00;18.92;;;4.50;99.90;;;;;;4995032;28;20239;-68
2022/04/20 04:16:50;;;;;;;31.77;18.63;;;4.50;99.90;;;;;;5008055;28;20183;-68
2022/04/20 04:19:29;;;;;;;25.50;15.95;;;4.50;99.90;;;;;;5014757;28;20203;-68
2022/04/20 04:21:56;;;;;;;30.15;18.23;;;4.60;99.90;;;;;;5014585;28;20182;-68
2022/04/20 04:24:34;;;;;;;29.08;20.73;;;4.60;99.90;;;;;;5000146;28;20203;-67
2022/04/20 04:27:03;;;;;;;31.67;20.40;;;4.60;99.90;;;;;;4992201;28;20203;-68
2022/04/20 04:29:29;;;;;;;32.95;21.67;;;4.70;99.90;;;;;;4993351;28;20199;-68
2022/04/20 04:31:56;;;;;;;25.90;16.85;;;4.70;99.90;;;;;;4992628;28;20206;-68
2022/04/20 04:34:26;;;;;;;25.13;16.67;;;4.80;99.90;;;;;;4993035;28;20735;-67
2022/04/20 04:36:54;;;;;;;34.08;18.25;;;4.80;99.90;;;;;;4993143;28;20202;-69
2022/04/20 04:39:28;;;;;;;26.27;16.45;;;4.90;99.90;;;;;;4992796;28;20225;-68
2022/04/20 04:42:05;;;;;;;24.23;15.10;;;4.90;99.90;;;;;;4993392;28;20278;-68
2022/04/20 04:44:37;;;;;;;27.80;16.88;;;5.00;99.90;;;;;;4994461;28;20233;-69
2022/04/20 04:50:16;;;;;;;28.42;16.92;;;5.00;99.90;;;;;;5052991;28;20193;-69
2022/04/20 04:52:47;;;;;;;36.50;21.00;;;5.10;99.90;;;;;;5051964;28;20239;-69
2022/04/20 04:55:14;;;;;;;32.75;20.05;;;5.10;99.90;;;;;;5013772;28;20265;-68
2022/04/20 04:57:41;;;;;;;39.50;19.52;;;5.20;99.90;;;;;;4989702;28;20180;-70
2022/04/20 05:00:07;;;;;;;31.02;19.02;;;5.20;99.90;;;;;;5007448;28;20264;-69
2022/04/20 05:02:34;;;;;;;32.13;16.30;;;5.30;99.90;;;;;;4994560;28;20215;-69
2022/04/20 05:05:01;;;;;;;32.65;18.17;;;5.40;99.90;;;;;;4993322;28;20199;-69
2022/04/20 05:07:29;;;;;;;31.60;17.08;;;5.40;99.90;;;;;;4993162;28;20188;-69
2022/04/20 05:09:55;;;;;;;28.40;16.98;;;5.50;99.90;;;;;;4993224;28;20238;-70
2022/04/20 05:12:21;;;;;;;35.23;18.67;;;5.60;99.90;;;;;;4994070;28;20183;-69
2022/04/20 05:14:47;;;;;;;28.95;17.55;;;5.60;99.90;;;;;;4989008;28;20952;-69
2022/04/20 05:17:14;;;;;;;23.23;16.77;;;5.70;99.90;;;;;;5000976;28;20197;-69
2022/04/20 05:19:43;;;;;;;30.02;18.13;;;5.70;99.90;;;;;;5013403;28;20540;-68
2022/04/20 05:22:09;;;;;;;30.97;18.63;;;5.80;99.90;;;;;;4983182;28;20301;-68
2022/04/20 05:24:38;;;;;;;28.03;16.73;;;5.70;99.90;;;;;;4991820;28;20232;-69
2022/04/20 05:27:05;;;;;;;38.03;21.30;;;5.70;99.90;;;;;;4992937;28;20417;-68
2022/04/20 05:29:34;;;;;;;33.70;20.60;;;5.80;99.90;;;;;;4993187;28;20207;-69
2022/04/20 05:32:00;;;;;;;25.23;17.77;;;5.80;99.90;;;;;;4993915;28;20571;-71
2022/04/20 05:34:30;;;;;;;33.00;18.23;;;5.90;99.90;;;;;;4993418;28;20616;-69
2022/04/20 05:46:59;;;;;;;27.35;15.60;;;6.20;99.90;;;;;;5034810;23;20238;-70
2022/04/20 05:49:39;;;;;;;26.60;16.38;;;6.20;99.90;;;;;;5009442;28;20202;-70
2022/04/20 05:52:11;;;;;;;28.02;17.50;;;6.30;99.90;;;;;;5012878;28;20173;-69
2022/04/20 05:54:39;;;;;;;24.17;16.65;;;6.40;99.90;;;;;;5029720;28;20211;-69
2022/04/20 05:57:11;;;;;;;28.75;17.48;;;6.40;99.90;;;;;;5012766;28;20190;-69
2022/04/20 05:59:47;;;;;;;30.50;18.38;;;6.50;99.90;;;;;;5012579;28;20682;-70
2022/04/20 06:02:13;;;;;;;31.52;19.20;;;6.60;99.90;;;;;;5012862;28;20236;-70
2022/04/20 06:04:42;;;;;;;30.05;17.77;;;6.70;99.90;;;;;;5012193;28;20206;-69
2022/04/20 06:07:13;;;;;;;27.73;18.35;;;6.70;99.90;;;;;;5012322;28;20182;-70
2022/04/20 06:09:39;;;;;;;30.23;18.65;;;6.80;99.90;;;;;;5012809;28;20199;-69
2022/04/20 06:12:07;;;;;;;30.05;18.65;;;6.90;99.90;;;;;;5012173;28;20663;-70
2022/04/20 06:14:40;;;;;;;25.00;15.45;;;7.00;99.90;;;;;;5012534;28;20256;-69
2022/04/20 06:17:08;;;;;;;32.08;16.90;;;7.10;99.90;;;;;;4997378;28;20666;-70
2022/04/20 06:19:34;;;;;;;24.17;16.30;;;7.20;99.90;;;;;;4992255;28;20579;-69
2022/04/20 06:22:10;;;;;;;29.50;18.38;;;7.30;99.90;;;;;;5001760;28;20171;-69
2022/04/20 06:24:38;;;;;;;28.23;16.77;;;7.40;99.90;;;;;;5010981;28;20202;-70
2022/04/20 06:27:07;;;;;;;31.30;17.98;;;7.60;99.90;;;;;;5027394;28;20546;-69
2022/04/20 06:29:37;;;;;;;37.55;19.30;;;7.70;99.90;;;;;;5003131;28;20215;-70
2022/04/20 06:32:06;;;;;;;42.30;21.20;;;7.80;99.90;;;;;;5012078;28;20183;-69
2022/04/20 06:34:34;;;;;;;40.30;22.85;;;8.00;99.90;;;;;;5005397;28;20297;-69
2022/04/20 06:37:05;;;;;;;42.60;21.90;;;8.10;99.90;;;;;;5009774;28;20569;-69
2022/04/20 06:39:32;;;;;;;29.35;16.75;;;8.20;99.90;;;;;;5008426;28;20217;-70
2022/04/20 06:41:57;;;;;;;28.65;18.23;;;8.30;99.90;;;;;;5009446;28;20190;-69
2022/04/20 06:44:23;;;;;;;26.25;16.05;;;8.30;99.90;;;;;;5011485;28;20699;-69
2022/04/20 06:46:49;;;;;;;29.80;15.60;;;8.40;99.90;;;;;;5011756;28;20227;-70
2022/04/20 06:49:22;;;;;;;22.97;15.80;;;8.50;99.90;;;;;;5067632;28;20466;-71
2022/04/20 07:00:17;;;;;;;21.80;15.32;;;8.90;99.90;;;;;;5033301;27;20229;-69
2022/04/20 07:02:44;;;;;;;22.80;16.20;;;9.00;99.90;;;;;;5037941;27;20206;-69
2022/04/20 07:05:12;;;;;;;26.10;16.30;;;9.10;99.90;;;;;;5057485;27;20339;-68
2022/04/20 07:07:38;;;;;;;23.92;15.52;;;9.20;99.90;;;;;;5061571;27;20183;-68
2022/04/20 07:10:05;;;;;;;24.87;16.27;;;9.30;99.90;;;;;;5015218;28;20555;-68
2022/04/20 07:12:31;;;;;;;27.55;18.80;;;9.40;99.90;;;;;;5015388;28;20292;-68
2022/04/20 07:15:02;;;;;;;21.35;14.43;;;9.50;99.90;;;;;;5013580;28;20816;-68
2022/04/20 07:17:28;;;;;;;20.60;15.02;;;9.60;99.90;;;;;;5017310;28;20187;-69
2022/04/20 07:19:55;;;;;;;22.90;15.30;;;9.70;99.90;;;;;;5015826;28;20202;-68
2022/04/20 07:22:21;;;;;;;16.63;12.90;;;9.80;99.90;;;;;;5014014;28;20210;-68
2022/04/20 07:24:48;;;;;;;21.93;14.07;;;9.90;99.90;;;;;;5006304;28;20276;-69
2022/04/20 07:27:18;;;;;;;19.67;13.55;;;10.00;99.90;;;;;;5004501;28;20420;-68
2022/04/20 07:29:45;;;;;;;19.10;12.90;;;10.10;99.90;;;;;;5015786;28;20233;-69
2022/04/20 07:32:11;;;;;;;15.60;10.77;;;10.20;99.90;;;;;;5007334;28;20182;-68
2022/04/20 07:34:38;;;;;;;14.73;12.25;;;10.30;99.90;;;;;;5016126;28;20430;-68
2022/04/20 07:37:04;;;;;;;19.90;14.45;;;10.50;99.90;;;;;;5025936;27;20638;-69
2022/04/20 07:39:30;;;;;;;20.37;13.50;;;10.60;99.90;;;;;;5064996;27;20246;-69
2022/04/20 07:41:57;;;;;;;15.10;12.27;;;10.70;99.90;;;;;;5118087;27;20175;-68
2022/04/20 07:44:26;;;;;;;18.60;12.00;;;10.90;99.90;;;;;;5110059;27;20467;-68
2022/04/20 07:46:53;;;;;;;18.63;12.57;;;11.00;99.90;;;;;;4997609;28;20213;-68
2022/04/20 07:52:04;;;;;;;17.27;12.63;;;11.30;99.90;;;;;;5007208;28;20189;-70
2022/04/20 07:54:31;;;;;;;17.75;13.20;;;11.50;99.90;;;;;;4991701;28;20812;-69
2022/04/20 07:57:05;;;;;;;19.27;12.30;;;11.60;99.90;;;;;;4982792;28;20452;-69
2022/04/20 07:59:34;;;;;;;17.73;12.23;;;11.70;99.90;;;;;;4986032;28;20674;-70
2022/04/20 08:02:11;;;;;;;14.90;11.00;;;11.80;99.90;;;;;;4988412;28;20179;-69
2022/04/20 08:04:43;;;;;;;14.30;11.40;;;11.90;99.90;;;;;;4989330;28;20464;-70
2022/04/20 08:07:46;;;;;;;15.88;11.65;;;12.10;99.90;;;;;;4995022;28;20258;-69
2022/04/20 08:10:37;;;;;;;14.52;10.60;;;12.10;99.90;;;;;;5000661;27;20578;-69
2022/04/20 08:15:54;;;;;;;13.32;9.95;;;12.30;99.90;;;;;;5009697;27;20217;-69
2022/04/20 08:18:20;;;;;;;13.02;8.88;;;12.40;99.90;;;;;;4996311;27;20237;-69
2022/04/20 08:20:52;;;;;;;11.27;9.75;;;12.40;99.90;;;;;;5034274;27;20203;-69
2022/04/20 08:23:29;;;;;;;14.20;11.45;;;12.50;99.90;;;;;;5018611;28;20234;-69
2022/04/20 08:26:24;;;;;;;11.38;9.38;;;12.50;99.90;;;;;;5012445;28;20217;-69
2022/04/20 08:29:11;;;;;;;13.77;8.65;;;12.50;99.90;;;;;;5066629;28;20191;-69
2022/04/20 08:31:42;;;;;;;11.82;9.43;;;12.50;99.90;;;;;;5038322;28;20239;-69
2022/04/20 08:34:09;;;;;;;13.88;9.80;;;12.60;99.90;;;;;;5012360;28;20182;-69
2022/04/20 08:36:35;;;;;;;13.88;10.45;;;12.70;99.90;;;;;;5037068;27;20270;-69
2022/04/20 08:39:09;;;;;;;13.20;9.27;;;12.80;99.90;;;;;;5113164;27;20270;-69
2022/04/20 08:41:36;;;;;;;13.25;10.15;;;12.90;99.90;;;;;;5108064;27;20467;-69
2022/04/20 08:44:04;;;;;;;12.73;9.05;;;13.10;99.90;;;;;;5094384;28;20210;-69
2022/04/20 08:46:43;;;;;;;13.90;10.55;;;13.20;99.90;;;;;;5088695;28;20176;-69
2022/04/20 08:49:21;;;;;;;11.63;10.40;;;13.40;99.90;;;;;;5087659;28;20212;-69
2022/04/20 08:54:41;;;;;;;15.87;11.60;;;13.70;99.90;;;;;;5105816;28;20884;-69
2022/04/20 08:57:21;;;;;;;13.43;10.00;;;14.10;99.90;;;;;;5093604;28;20791;-69
2022/04/20 08:59:52;;;;;;;14.87;9.70;;;14.50;99.90;;;;;;5095062;28;20447;-68
2022/04/20 09:02:24;;;;;;;12.37;10.07;;;15.10;99.90;;;;;;5086211;28;20519;-68
2022/04/20 09:04:52;;;;;;;10.20;8.20;;;15.70;99.90;;;;;;5086725;28;20480;-69
2022/04/20 09:07:19;;;;;;;9.50;8.53;;;16.10;99.90;;;;;;5086193;28;20894;-68
2022/04/20 09:09:45;;;;;;;10.87;8.63;;;16.40;99.90;;;;;;5083035;28;20426;-68
2022/04/20 09:12:19;;;;;;;11.10;9.50;;;16.60;99.90;;;;;;5094714;28;20412;-69
2022/04/20 09:14:56;;;;;;;14.00;10.37;;;16.80;99.90;;;;;;5094314;28;20553;-69
2022/04/20 09:17:26;;;;;;;14.70;10.50;;;16.80;99.90;;;;;;5093742;28;20999;-70
2022/04/20 09:19:56;;;;;;;11.27;9.60;;;16.60;99.90;;;;;;5092382;28;20443;-69
2022/04/20 09:22:34;;;;;;;14.70;9.77;;;16.40;99.90;;;;;;5091661;28;20540;-69
2022/04/20 09:25:14;;;;;;;11.33;9.23;;;16.10;99.90;;;;;;5092151;28;20483;-69
2022/04/20 09:27:52;;;;;;;11.73;9.83;;;15.90;99.90;;;;;;5091249;28;21704;-69
2022/04/20 09:30:59;;;;;;;8.77;7.93;;;15.60;99.90;;;;;;5090625;28;20833;-68
2022/04/20 09:33:50;;;;;;;9.80;8.80;;;15.40;98.00;;;;;;5089197;28;20429;-69
2022/04/20 09:36:46;;;;;;;11.63;8.70;;;15.30;98.70;;;;;;5089242;28;20431;-69
2022/04/20 09:39:14;;;;;;;10.00;8.43;;;15.30;97.20;;;;;;5089019;28;20559;-69
2022/04/20 09:42:02;;;;;;;10.07;8.63;;;15.40;97.90;;;;;;5086974;28;21003;-69
2022/04/20 09:44:40;;;;;;;10.43;8.73;;;15.40;98.20;;;;;;5090533;28;20480;-69
2022/04/20 09:50:02;;;;;;;11.00;9.17;;;15.70;97.80;;;;;;5031668;27;20498;-68
2022/04/20 09:52:49;;;;;;;11.43;9.17;;;15.70;96.70;;;;;;5041912;27;20854;-70
2022/04/20 09:55:36;;;;;;;12.53;9.37;;;15.60;94.50;;;;;;5045855;28;20452;-71
2022/04/20 09:58:22;;;;;;;9.10;7.77;;;15.60;95.40;;;;;;5014456;28;20437;-69
2022/04/20 10:00:51;;;;;;;9.40;8.50;;;15.60;95.70;;;;;;5024658;28;20455;-70
2022/04/20 10:03:26;;;;;;;8.90;7.53;;;15.80;95.30;;;;;;5044082;28;20486;-70
2022/04/20 10:05:53;;;;;;;11.13;8.30;;;16.00;95.40;;;;;;5045486;28;20483;-69
2022/04/20 10:08:25;;;;;;;9.40;7.47;;;16.10;95.10;;;;;;5045252;27;20924;-69
2022/04/20 10:10:57;;;;;;;8.70;7.17;;;16.20;95.00;;;;;;5040511;28;20464;-70
2022/04/20 10:13:27;;;;;;;8.67;7.70;;;16.20;94.30;;;;;;5049436;28;20797;-69
2022/04/20 10:16:08;;;;;;;10.30;8.63;;;16.30;94.20;;;;;;5040193;28;20465;-69
2022/04/20 10:18:39;;;;;;;7.40;6.40;;;16.30;94.00;;;;;;5032856;28;20427;-69
2022/04/20 10:21:13;;;;;;;10.70;7.70;;;16.20;92.80;;;;;;5046319;28;20459;-70
2022/04/20 10:23:49;;;;;;;7.90;7.10;;;16.10;91.60;;;;;;5054160;28;20627;-69
2022/04/20 10:26:25;;;;;;;8.47;6.90;;;16.00;91.30;;;;;;5082537;27;20438;-69
2022/04/20 10:29:10;;;;;;;8.67;6.40;;;15.90;91.10;;;;;;5069695;27;20938;-70
2022/04/20 10:32:02;;;;;;;7.27;6.53;;;15.80;91.50;;;;;;5058201;27;20487;-71
2022/04/20 10:34:33;;;;;;;6.60;6.00;;;15.70;91.40;;;;;;5024581;28;21066;-70
2022/04/20 10:37:04;;;;;;;10.27;7.50;;;15.70;91.40;;;;;;5048742;27;20415;-70
2022/04/20 10:39:38;;;;;;;7.73;6.93;;;15.60;91.10;;;;;;5047034;28;20478;-71
2022/04/20 10:42:16;;;;;;;7.47;6.33;;;15.70;90.90;;;;;;5027429;28;20490;-71
2022/04/20 10:45:08;;;;;;;9.43;5.90;;;15.80;90.60;;;;;;5011487;28;20479;-68
2022/04/20 10:48:10;;;;;;;6.93;5.90;;;16.00;90.80;;;;;;5022304;28;20447;-69
2022/04/20 10:51:12;;;;;;;7.40;5.23;;;16.10;89.20;;;;;;5025049;28;20463;-68
2022/04/20 10:53:46;;;;;;;7.40;5.60;;;16.20;86.50;;;;;;5015224;28;20427;-69
2022/04/20 10:56:12;;;;;;;6.00;5.30;;;16.20;89.00;;;;;;5016932;27;20519;-69
2022/04/20 10:59:06;;;;;;;9.43;6.10;;;16.20;88.30;;;;;;5014760;27;20961;-69
2022/04/20 11:02:02;;;;;;;7.87;6.73;;;16.10;89.90;;;;;;5025853;27;20995;-69
2022/04/20 11:04:50;;;;;;;6.70;6.00;;;16.00;90.40;;;;;;5031310;27;20487;-67
2022/04/20 11:07:18;;;;;;;6.70;6.10;;;15.90;90.30;;;;;;5042730;27;20554;-69
2022/04/20 11:10:18;;;;;;;9.23;6.10;;;15.70;90.70;;;;;;5019725;28;20835;-68
2022/04/20 11:18:39;;;;;;;6.13;5.57;;;15.20;91.10;;;;;;5028215;27;20777;-69
2022/04/20 11:21:09;;;;;;;6.00;5.30;;;15.30;91.30;;;;;;5016959;28;20579;-68
2022/04/20 11:24:07;;;;;;;5.80;5.30;;;15.30;88.20;;;;;;5053667;27;20482;-69
2022/04/20 11:27:15;;;;;;;5.50;5.00;;;15.30;89.10;;;;;;5025826;28;20427;-69
2022/04/20 11:29:59;;;;;;;6.73;6.03;;;15.40;90.10;;;;;;5021599;28;20474;-69
2022/04/20 11:32:26;;;;;;;8.00;6.20;;;15.50;90.30;;;;;;5039989;27;20426;-68
2022/04/20 11:35:05;;;;;;;8.57;6.67;;;15.60;90.40;;;;;;5095321;27;20774;-70
2022/04/20 11:37:31;;;;;;;14.63;11.10;;;15.70;90.00;;;;;;5067220;28;20444;-69
2022/04/20 11:39:59;;;;;;;7.27;5.77;;;15.70;89.10;;;;;;5008838;28;20470;-70
2022/04/20 11:42:37;;;;;;;6.77;6.07;;;15.70;87.20;;;;;;5011523;28;20479;-68
2022/04/20 11:45:06;;;;;;;5.87;5.27;;;15.70;88.70;;;;;;5020765;28;20495;-67
2022/04/20 11:47:48;;;;;;;6.80;6.10;;;15.80;88.00;;;;;;5019070;28;20969;-67
2022/04/20 11:50:14;;;;;;;6.67;5.87;;;16.00;90.80;;;;;;5031323;28;20468;-71
2022/04/20 11:52:42;;;;;;;6.87;5.27;;;16.20;90.10;;;;;;5005680;28;20929;-70
2022/04/20 11:55:08;;;;;;;7.70;6.10;;;16.30;88.50;;;;;;5017001;28;21239;-71
2022/04/20 11:57:34;;;;;;;7.00;6.30;;;16.40;89.20;;;;;;5062892;27;20408;-70
2022/04/20 12:00:04;;;;;;;6.40;5.80;;;16.50;89.50;;;;;;5078324;27;20592;-69
2022/04/20 12:02:30;;;;;;;7.17;6.47;;;16.50;88.80;;;;;;5102441;27;20471;-70
2022/04/20 12:05:10;;;;;;;8.27;6.50;;;16.50;88.40;;;;;;5068958;27;20470;-69
2022/04/20 12:07:37;;;;;;;9.57;6.23;;;16.40;88.80;;;;;;5025766;27;20951;-69
2022/04/20 12:10:04;;;;;;;6.50;5.70;;;16.40;88.30;;;;;;5041866;28;20829;-70
2022/04/20 12:12:32;;;;;;;7.00;5.73;;;16.40;88.10;;;;;;5023748;28;21010;-69
2022/04/20 12:15:09;;;;;;;6.97;6.13;;;16.30;88.80;;;;;;5023740;28;20520;-69
2022/04/20 12:17:37;;;;;;;5.80;5.20;;;16.30;89.80;;;;;;5006464;28;20415;-70
2022/04/20 12:20:09;;;;;;;8.47;6.00;;;16.40;90.00;;;;;;5032276;27;20516;-70
2022/04/20 12:22:35;;;;;;;6.23;5.63;;;16.40;87.50;;;;;;5009569;28;20555;-70
2022/04/20 12:25:19;;;;;;;7.60;6.00;;;16.50;87.20;;;;;;5032015;28;20656;-69
2022/04/20 12:28:35;;;;;;;5.60;5.10;;;16.60;85.50;;;;;;5038393;27;20514;-70
2022/04/20 12:30:45;;;;;;;6.00;5.40;;;16.60;85.00;;;;;;5057146;27;20817;-70
2022/04/20 12:33:26;;;;;;;6.10;5.50;;;16.70;85.00;;;;;;5017317;27;20468;-70
2022/04/20 12:36:02;;;;;;;5.90;5.27;;;16.80;85.60;;;;;;4999484;27;20454;-70
2022/04/20 12:38:31;;;;;;;8.53;6.57;;;16.90;84.70;;;;;;5050718;27;20430;-70
2022/04/20 12:41:00;;;;;;;8.23;6.40;;;16.80;85.10;;;;;;5018177;28;20520;-68
2022/04/20 12:43:36;;;;;;;7.17;6.17;;;16.80;85.40;;;;;;5016553;28;20461;-68
2022/04/20 12:46:13;;;;;;;7.00;6.30;;;16.70;84.50;;;;;;5055392;27;21303;-69
2022/04/20 12:48:44;;;;;;;7.43;6.33;;;16.60;85.00;;;;;;5010984;28;20459;-68
2022/04/20 12:51:23;;;;;;;6.80;6.10;;;16.50;85.10;;;;;;5016509;28;20471;-69
2022/04/20 12:53:50;;;;;;;7.70;5.80;;;16.40;85.60;;;;;;5030981;28;20492;-69
2022/04/20 13:02:05;;;;;;;9.30;6.70;;;16.20;84.80;;;;;;5035774;27;20480;-69
2022/04/20 13:04:34;;;;;;;6.97;6.00;;;16.10;85.30;;;;;;5052876;27;20827;-69
2022/04/20 13:07:06;;;;;;;6.10;5.50;;;16.10;85.60;;;;;;5063915;28;20446;-70
2022/04/20 13:09:32;;;;;;;9.80;6.93;;;16.00;85.10;;;;;;5072737;23;20597;-95
2022/04/20 13:12:01;;;;;;;7.10;6.17;;;16.00;85.60;;;;;;5042884;28;21006;-88
2022/04/20 13:14:26;;;;;;;7.40;6.17;;;16.00;84.50;;;;;;5018248;28;20191;-93
2022/04/20 13:16:52;;;;;;;7.10;6.40;;;16.10;83.20;;;;;;5043886;27;20828;-87
2022/04/20 13:19:18;;;;;;;6.50;5.90;;;16.10;83.20;;;;;;5047718;28;20448;-88
2022/04/20 13:21:44;;;;;;;6.57;5.97;;;16.10;83.40;;;;;;5051521;27;20518;-88
2022/04/20 13:24:12;;;;;;;6.57;5.37;;;16.10;81.70;;;;;;5064203;27;20233;-88
2022/04/20 13:29:23;;;;;;;5.43;4.90;;;16.00;81.30;;;;;;5039813;27;20430;-88
2022/04/20 13:31:48;;;;;;;7.10;5.60;;;16.00;81.00;;;;;;5078344;28;20452;-88
2022/04/20 13:34:14;;;;;;;8.83;5.70;;;16.00;81.30;;;;;;5026501;28;20432;-96
2022/04/20 13:36:40;;;;;;;6.67;6.07;;;16.10;82.30;;;;;;5033949;27;20183;-96
2022/04/20 13:39:06;;;;;;;7.27;5.60;;;16.10;81.80;;;;;;5067272;27;20519;-87
2022/04/20 13:41:32;;;;;;;7.57;5.90;;;16.20;82.70;;;;;;5110197;27;20494;-87
2022/04/20 13:43:59;;;;;;;6.97;5.73;;;16.30;82.60;;;;;;5041437;27;20514;-95
2022/04/20 13:46:24;;;;;;;7.37;5.83;;;16.40;82.60;;;;;;5051039;28;20299;-87
2022/04/20 13:48:51;;;;;;;6.90;6.20;;;16.40;82.20;;;;;;5052339;27;20463;-86
2022/04/20 13:51:17;;;;;;;6.67;5.47;;;16.50;82.70;;;;;;5065925;27;20182;-87